Latest Weather Observations for Mareeba

IDQ60801

Issued at 9:32 pm EST Friday 29 July 2016 (issued every 30 minutes, with the page automatically refreshed every 10 minutes)

About weather observations | Map of weather stations | Latest weather observations for QLD | Other Formats
Station Details ID: 031210 Name: MAREEBA AIRPORT Lat: -17.07 Lon: 145.43 Height: 471.93 m
Data from the previous 72 hours. | See also: Recent months at Mareeba
Date/Time
EST
Temp
°C
App
Temp
°C
Dew
Point
°C
Rel
Hum
%
Delta-T
°C
Wind Press
QNH
hPa
Press
MSL
hPa
Rain since
9am
mm
Dir  Spd
km/h
Gust
km/h
Spd
kts
Gust
kts
29/09:30pm 17.0 13.5 12.3 74 2.6 SSE 22 33 12 18 1018.7 - 0.0
29/09:00pm 17.2 13.9 12.7 75 2.6 SSE 22 30 12 16 1018.8 1017.2 0.0
29/08:30pm 17.5 14.3 13.0 75 2.6 SSE 22 32 12 17 1018.9 - 0.0
29/08:00pm 17.6 14.8 13.1 75 2.6 SSE 20 28 11 15 1018.4 - 0.0
29/07:30pm 18.0 14.9 13.3 74 2.7 SSE 22 33 12 18 1018.1 - 0.0
29/07:00pm 18.4 15.3 13.3 72 2.9 SSE 22 33 12 18 1017.8 - 0.0
29/06:30pm 19.0 15.8 13.2 69 3.4 SSE 22 30 12 16 1017.3 - 0.0
29/06:00pm 19.8 17.0 13.3 66 3.8 SSE 20 28 11 15 1016.8 1015.2 0.0
29/05:30pm 20.8 17.7 13.3 62 4.4 SSE 22 32 12 17 1016.7 - 0.0
29/05:00pm 21.6 18.0 13.2 59 4.9 SSE 24 30 13 16 1016.6 - 0.0
29/04:30pm 22.0 18.1 13.4 58 5.1 SSE 26 32 14 17 1016.5 - 0.0
29/04:00pm 22.8 19.4 13.6 56 5.5 SSE 24 33 13 18 1016.5 - 0.0
29/03:30pm 22.6 18.6 13.1 55 5.6 SSE 26 35 14 19 1016.5 - 0.0
29/03:00pm 23.3 19.8 13.5 54 5.8 SSE 24 32 13 17 1016.5 1014.9 0.0
29/02:30pm 22.9 19.4 13.4 55 5.6 SSE 24 33 13 18 1016.5 - 0.0
29/02:00pm 23.8 20.8 13.6 52 6.1 SSE 22 32 12 17 1016.9 - 0.0
29/01:30pm 23.5 20.3 13.1 52 6.1 SE 22 35 12 19 1017.2 - 0.0
29/01:00pm 23.1 19.8 12.7 52 6.1 SE 22 35 12 19 1017.4 - 0.0
29/12:30pm 23.2 19.6 13.1 53 5.9 SSE 24 33 13 18 1018.0 - 0.0
29/12:00pm 22.1 17.6 12.6 55 5.5 SE 28 33 15 18 1018.6 1017.0 0.0
29/11:30am 21.1 16.5 12.3 57 5.1 SSE 28 37 15 20 1019.2 - 0.0
29/11:00am 21.6 18.0 13.2 59 4.9 SE 24 35 13 19 1019.5 - 0.0
29/10:30am 20.4 15.5 12.4 60 4.6 SSE 30 39 16 21 1019.7 - 0.0
29/10:00am 20.0 15.0 12.3 61 4.4 SE 30 41 16 22 1019.6 - 0.0
29/09:30am 19.5 14.5 12.3 63 4.1 SE 30 39 16 21 1019.6 - 0.0
29/09:00am 18.9 15.1 12.4 66 3.7 SSE 24 35 13 19 1019.7 1018.2 0.0
29/08:30am 18.2 14.1 12.6 70 3.2 SSE 26 33 14 18 1019.7 - 0.0
29/08:00am 17.2 13.8 12.5 74 2.7 SE 22 33 12 18 1019.4 - 0.0
29/07:30am 16.2 13.4 12.6 79 2.0 SE 19 26 10 14 1019.2 - 0.0
29/07:00am 15.4 12.5 12.3 82 1.7 SSE 19 24 10 13 1019.0 - 0.0
29/06:30am 15.3 12.4 12.2 82 1.7 SSE 19 28 10 15 1018.8 - 0.0
29/06:00am 15.2 12.7 12.3 83 1.6 SSE 17 22 9 12 1018.4 1016.8 0.0
29/05:30am 15.5 13.1 12.6 83 1.6 SSE 17 24 9 13 1018.2 - 0.0
29/05:00am 15.5 12.7 12.6 83 1.6 SSE 19 26 10 14 1017.9 - 0.0
29/04:30am 15.5 12.7 12.6 83 1.6 SSE 19 24 10 13 1017.7 - 0.0
29/04:00am 15.3 12.4 12.4 83 1.6 SSE 19 24 10 13 1017.7 - 0.0
29/03:30am 15.4 12.3 12.3 82 1.7 SSE 20 26 11 14 1017.8 - 0.0
29/03:00am 15.6 12.6 12.4 81 1.8 SSE 20 26 11 14 1018.0 1016.4 0.0
29/02:30am 15.7 12.7 12.5 81 1.8 SSE 20 26 11 14 1018.3 - 0.0
29/02:00am 15.7 12.7 12.5 81 1.8 SSE 20 28 11 15 1018.5 - 0.0
29/01:30am 15.7 12.7 12.6 82 1.7 SSE 20 26 11 14 1018.8 - 0.0
29/01:00am 15.6 12.2 12.5 82 1.7 SSE 22 28 12 15 1019.0 - 0.0
29/12:30am 15.6 12.6 12.4 81 1.8 SSE 20 28 11 15 1019.2 - 0.0
29/12:00am 15.8 12.0 12.4 80 1.9 SSE 24 32 13 17 1019.4 1017.9 0.0
 
Date/Time
EST
Temp
°C
App
Temp
°C
Dew
Point
°C
Rel
Hum
%
Delta-T
°C
Wind Press
QNH
hPa
Press
MSL
hPa
Rain since
9am
mm
Dir  Spd
km/h
Gust
km/h
Spd
kts
Gust
kts
28/11:30pm 15.5 12.6 12.3 81 1.8 S 19 22 10 12 1019.7 - 0.0
28/11:00pm 15.6 12.4 12.0 79 2.0 SSE 20 30 11 16 1020.1 - 0.0
28/10:30pm 15.7 12.4 11.7 77 2.2 SSE 20 30 11 16 1020.0 - 0.0
28/10:00pm 15.9 12.3 11.7 76 2.3 SSE 22 28 12 15 1020.4 - 0.0
28/09:30pm 16.1 12.4 11.5 74 2.5 SSE 22 32 12 17 1020.5 - 0.0
28/09:00pm 16.4 12.8 11.8 74 2.6 SE 22 37 12 20 1020.5 1018.9 0.0
28/08:30pm 16.7 13.0 11.6 72 2.8 SE 22 33 12 18 1020.2 - 0.0
28/08:00pm 17.1 13.2 10.7 66 3.5 SE 22 32 12 17 1019.7 - 0.0
28/07:30pm 17.6 12.4 10.2 62 4.0 SE 28 39 15 21 1019.5 - 0.0
28/07:00pm 18.1 13.4 10.5 61 4.2 SE 26 41 14 22 1019.2 - 0.0
28/06:30pm 18.5 14.1 10.3 59 4.5 SE 24 39 13 21 1018.9 - 0.0
28/06:00pm 19.1 13.6 9.3 53 5.3 SE 28 39 15 21 1018.8 1017.2 0.0
28/05:30pm 20.3 15.6 10.7 54 5.3 SE 26 35 14 19 1018.5 - 0.0
28/05:00pm 20.7 15.6 10.5 52 5.7 SE 28 39 15 21 1018.3 - 0.0
28/04:30pm 21.8 17.0 11.5 52 5.9 SE 28 39 15 21 1017.9 - 0.0
28/04:00pm 22.6 17.8 11.7 50 6.3 SSE 28 39 15 21 1017.6 - 0.0
28/03:30pm 23.1 18.3 11.8 49 6.5 SSE 28 41 15 22 1017.3 - 0.0
28/03:00pm 24.3 20.0 11.9 45 7.2 SSE 26 39 14 21 1017.2 1015.6 0.0
28/02:30pm 24.6 20.4 12.5 46 7.1 SSE 26 35 14 19 1017.3 - 0.0
28/02:00pm 24.9 20.4 12.5 46 7.3 SE 28 41 15 22 1017.6 - 0.0
28/01:30pm 24.3 19.5 11.6 45 7.3 SSE 28 46 15 25 1018.0 - 0.0
28/01:27pm 24.7 20.0 12.0 45 7.4 SE 28 46 15 25 1018.0 - 0.0
28/01:00pm 24.2 19.2 12.2 47 7.0 SE 30 44 16 24 1018.3 - 0.0
28/12:30pm 23.7 18.4 12.4 49 6.6 SSE 32 46 17 25 1018.7 - 0.0
28/12:22pm 24.3 19.8 12.6 48 6.9 SE 28 46 15 25 1018.8 - 0.0
28/12:00pm 23.2 18.1 11.9 49 6.5 SE 30 46 16 25 1019.1 1017.5 0.0
28/11:30am 23.6 18.8 12.9 51 6.3 SE 30 44 16 24 1019.5 - 0.0
28/11:00am 22.9 18.3 12.2 51 6.2 SE 28 37 15 20 1020.1 - 0.0
28/10:30am 22.2 16.9 12.5 54 5.6 SE 32 46 17 25 1020.3 - 0.0
28/10:00am 21.3 15.9 12.7 58 5.0 SE 33 48 18 26 1020.4 - 0.0
28/09:30am 20.9 15.4 12.3 58 4.9 SE 33 46 18 25 1020.4 - 0.0
28/09:26am 21.1 16.6 12.5 58 5.0 SE 28 46 15 25 1020.4 - 0.0
28/09:00am 20.8 16.4 13.0 61 4.5 SE 28 41 15 22 1020.5 1018.9 0.0
28/08:30am 19.6 14.8 12.8 65 3.9 SE 30 44 16 24 1020.3 - 0.0
28/08:18am 19.2 14.7 12.7 66 3.7 SE 28 48 15 26 1020.2 - 0.0
28/08:00am 18.9 14.9 13.1 69 3.3 SE 26 43 14 23 1020.2 - 0.0
28/07:30am 18.5 14.3 13.4 72 3.0 SSE 28 39 15 21 1019.7 - 0.0
28/07:00am 18.7 14.1 13.6 72 3.0 SE 30 43 16 23 1019.4 - 0.0
28/06:30am 18.8 16.8 15.5 81 2.0 SSE 20 28 11 15 1019.0 - 0.0
28/06:00am 18.6 17.1 15.3 81 2.0 SE 17 24 9 13 1018.8 1017.2 0.0
28/05:30am 18.9 16.8 14.8 77 2.4 SE 19 26 10 14 1018.6 - 0.0
28/05:00am 19.0 16.9 15.1 78 2.3 SE 20 28 11 15 1018.5 - 0.0
28/04:30am 19.0 16.9 15.3 79 2.2 SE 20 35 11 19 1018.5 - 0.0
28/04:00am 18.6 16.7 15.3 81 2.0 SE 19 26 10 14 1018.4 - 0.0
28/03:30am 18.1 15.5 14.8 81 2.0 SE 22 35 12 19 1018.2 - 0.0
28/03:00am 17.8 15.4 14.5 81 1.9 SSE 20 24 11 13 1018.5 1016.9 0.0
28/02:30am 17.8 15.5 14.1 79 2.2 SSE 19 24 10 13 1018.8 - 0.0
28/02:00am 17.7 15.2 13.6 77 2.4 SSE 19 26 10 14 1018.9 - 0.0
28/01:30am 18.0 15.3 13.5 75 2.6 SSE 20 30 11 16 1018.9 - 0.0
28/01:00am 17.7 15.9 13.2 75 2.6 S 15 20 8 11 1019.4 - 0.0
28/12:30am 18.4 16.4 12.8 70 3.2 SSE 15 20 8 11 1019.3 - 0.0
28/12:00am 18.5 16.2 12.9 70 3.2 SSE 17 24 9 13 1019.4 1017.9 0.0
 
Date/Time
EST
Temp
°C
App
Temp
°C
Dew
Point
°C
Rel
Hum
%
Delta-T
°C
Wind Press
QNH
hPa
Press
MSL
hPa
Rain since
9am
mm
Dir  Spd
km/h
Gust
km/h
Spd
kts
Gust
kts
27/11:30pm 18.8 16.2 13.2 70 3.2 SE 19 30 10 16 1019.3 - 0.0
27/11:00pm 18.9 15.8 13.5 71 3.1 SE 22 30 12 16 1019.4 - 0.0
27/10:30pm 19.4 16.6 13.3 68 3.5 SE 20 28 11 15 1019.7 - 0.0
27/10:00pm 19.9 17.4 13.4 66 3.8 SE 19 24 10 13 1020.0 - 0.0
27/09:30pm 19.9 17.2 13.6 67 3.7 SE 20 26 11 14 1019.9 - 0.0
27/09:00pm 20.1 17.2 14.0 68 3.6 SE 22 33 12 18 1019.6 1018.1 0.0
27/08:30pm 20.1 17.3 14.2 69 3.5 SSE 22 32 12 17 1019.3 - 0.0
27/08:00pm 20.3 17.9 14.4 69 3.5 SE 20 26 11 14 1019.2 - 0.0
27/07:30pm 20.7 17.8 14.1 66 3.9 SE 22 32 12 17 1018.9 - 0.0
27/07:00pm 20.8 18.3 14.2 66 3.9 SE 20 28 11 15 1018.4 - 0.0
27/06:30pm 21.2 18.3 13.9 63 4.3 SE 22 30 12 16 1018.1 - 0.0
27/06:00pm 21.6 17.9 13.8 61 4.6 SE 26 39 14 21 1017.9 1016.3 0.0
27/05:30pm 22.1 18.3 13.7 59 5.0 SE 26 35 14 19 1017.4 - 0.0
27/05:00pm 22.6 18.9 13.9 58 5.2 SE 26 39 14 21 1017.1 - 0.0
27/04:30pm 23.0 18.9 13.8 56 5.5 SE 28 37 15 20 1016.9 - 0.0
27/04:00pm 23.2 18.2 13.4 54 5.8 SSE 32 43 17 23 1016.7 - 0.0
27/03:43pm 23.5 19.6 14.5 57 5.4 SE 28 46 15 25 1016.8 - 0.0
27/03:30pm 23.2 19.2 14.2 57 5.4 SE 28 39 15 21 1016.8 - 0.0
27/03:00pm 23.1 18.9 14.7 59 5.1 SE 30 43 16 23 1016.9 1015.3 0.0
27/02:30pm 23.3 19.4 15.4 61 4.8 SE 30 41 16 22 1016.9 - 0.0
27/02:00pm 23.3 19.8 15.4 61 4.8 SE 28 41 15 22 1017.0 - 0.0
27/01:30pm 24.4 21.3 15.6 58 5.4 SE 26 39 14 21 1017.0 - 0.0
27/01:00pm 23.2 20.2 15.8 63 4.6 SE 26 35 14 19 1017.4 - 0.0
27/12:30pm 22.8 19.3 15.4 63 4.5 SE 28 39 15 21 1017.6 - 0.0
27/12:00pm 22.9 20.7 16.0 65 4.3 SSE 22 33 12 18 1018.0 1016.4 0.0
27/11:30am 22.9 19.8 15.7 64 4.4 SE 26 37 14 20 1018.2 - 0.0
27/11:00am 23.2 20.1 15.5 62 4.7 SE 26 37 14 20 1018.4 - 0.0
27/10:30am 23.8 21.0 16.3 63 4.7 SE 26 39 14 21 1018.5 - 0.0
27/10:19am 22.6 19.1 15.4 64 4.4 SE 28 46 15 25 1018.5 - 0.0
27/10:00am 22.0 19.0 15.8 68 3.8 SE 26 35 14 19 1018.6 - 0.0
27/09:30am 21.6 18.7 16.1 71 3.4 SE 26 35 14 19 1018.7 - 0.0
27/09:00am 20.9 18.4 16.1 74 2.9 SE 24 39 13 21 1018.4 1016.8 0.0
27/08:30am 19.9 18.3 16.0 78 2.4 SSE 19 28 10 15 1018.2 - 0.0
27/08:00am 19.4 16.8 15.9 80 2.1 SE 24 33 13 18 1018.0 - 0.0
27/07:30am 19.0 17.1 15.7 81 2.0 SE 20 32 11 17 1017.8 - 0.0
27/07:00am 18.5 16.5 15.6 83 1.7 SE 20 32 11 17 1017.4 - 0.0
27/06:30am 18.3 16.5 15.6 84 1.6 SSE 19 24 10 13 1017.2 - 0.0
27/06:00am 18.3 16.5 15.6 84 1.6 SE 19 26 10 14 1016.9 1015.3 0.0
27/05:30am 18.2 16.2 15.5 84 1.6 SSE 20 32 11 17 1016.7 - 0.0
27/05:00am 18.3 16.3 15.4 83 1.7 SSE 20 30 11 16 1016.7 - 0.0
27/04:30am 18.2 16.8 15.5 84 1.6 SSE 17 26 9 14 1016.6 - 0.0
27/04:00am 18.3 16.3 15.6 84 1.6 SSE 20 28 11 15 1016.7 - 0.0
27/03:30am 18.4 16.4 15.6 84 1.7 SSE 20 24 11 13 1016.8 - 0.0
27/03:00am 18.1 16.7 15.5 85 1.6 SE 17 22 9 12 1016.9 1015.3 0.0
27/02:30am 18.2 16.4 15.5 84 1.6 SE 19 26 10 14 1017.0 - 0.0
27/02:00am 18.0 16.6 15.6 86 1.4 SE 17 24 9 13 1017.2 - 0.0
27/01:30am 17.8 16.8 15.6 87 1.3 SE 15 20 8 11 1017.4 - 0.0
27/01:00am 18.1 17.1 15.7 86 1.4 SE 15 20 8 11 1017.7 - 0.0
27/12:30am 17.7 15.8 15.3 86 1.4 SE 19 24 10 13 1017.9 - 0.0
27/12:00am 17.9 16.6 15.9 88 1.2 SE 17 20 9 11 1017.9 1016.3 0.0
 
Date/Time
EST
Temp
°C
App
Temp
°C
Dew
Point
°C
Rel
Hum
%
Delta-T
°C
Wind Press
QNH
hPa
Press
MSL
hPa
Rain since
9am
mm
Dir  Spd
km/h
Gust
km/h
Spd
kts
Gust
kts
26/11:30pm 18.0 17.2 16.0 88 1.2 SSE 15 19 8 10 1018.0 - 0.0
26/11:00pm 18.1 16.8 15.9 87 1.3 SE 17 20 9 11 1018.3 - 0.0
26/10:30pm 18.1 17.2 15.9 87 1.3 SE 15 19 8 10 1018.3 - 0.0
26/10:00pm 18.1 17.5 15.7 86 1.4 SSE 13 17 7 9 1018.2 - 0.0

Other Formats:

Comma delimited format used in spreadsheet applications
http://www.bom.gov.au/fwo/IDQ60801/IDQ60801.95286.axf

JavaScript Object Notation format (JSON) in row-major order
http://www.bom.gov.au/fwo/IDQ60801/IDQ60801.95286.json